createdAt,value
2023-03-10T00:01:18.693Z,5.52
2023-03-10T00:03:45.833Z,5.60
2023-03-10T00:06:15.030Z,5.61
2023-03-10T00:08:42.523Z,5.65
2023-03-10T00:11:09.192Z,5.64
2023-03-10T00:13:35.775Z,5.67
2023-03-10T00:16:02.409Z,5.58
2023-03-10T00:18:29.693Z,5.71
2023-03-10T00:20:56.663Z,5.81
2023-03-10T00:23:23.530Z,5.76
2023-03-10T00:26:00.754Z,5.77
2023-03-10T00:28:28.182Z,5.78
2023-03-10T00:31:04.365Z,5.72
2023-03-10T00:33:33.019Z,5.63
2023-03-10T00:36:16.044Z,5.63
2023-03-10T00:38:44.479Z,6.05
2023-03-10T00:41:14.348Z,6.11
2023-03-10T00:43:41.217Z,6.34
2023-03-10T00:46:07.841Z,6.73
2023-03-10T00:48:35.278Z,6.84
2023-03-10T00:51:01.955Z,6.67
2023-03-10T00:53:28.772Z,6.60
2023-03-10T00:56:04.158Z,6.66
2023-03-10T00:58:31.705Z,6.50
2023-03-10T01:00:59.037Z,6.56
2023-03-10T01:03:26.728Z,6.80
2023-03-10T01:05:53.863Z,7.05
2023-03-10T01:08:21.051Z,7.03
2023-03-10T01:10:48.198Z,6.89
2023-03-10T01:13:15.564Z,6.85
2023-03-10T01:15:44.470Z,6.72
2023-03-10T01:18:11.095Z,6.73
2023-03-10T01:20:37.611Z,6.78
2023-03-10T01:23:04.102Z,6.86
2023-03-10T01:25:30.856Z,7.06
2023-03-10T01:27:57.673Z,7.17
2023-03-10T01:30:24.142Z,7.09
2023-03-10T01:32:50.929Z,7.11
2023-03-10T01:35:17.710Z,7.19
2023-03-10T01:37:44.650Z,7.12
2023-03-10T01:40:16.326Z,7.22
2023-03-10T01:42:43.454Z,7.00
2023-03-10T01:45:30.071Z,7.13
2023-03-10T01:47:57.001Z,7.21
2023-03-10T01:50:23.961Z,7.14
2023-03-10T01:52:56.645Z,7.24
2023-03-10T01:55:46.652Z,7.26
2023-03-10T01:58:13.825Z,7.41
2023-03-10T02:00:40.714Z,7.44
2023-03-10T02:03:19.573Z,7.45
2023-03-10T02:05:49.192Z,7.41
2023-03-10T02:08:16.902Z,7.46
2023-03-10T02:10:43.435Z,7.41
2023-03-10T02:13:10.492Z,7.39
2023-03-10T02:15:37.437Z,7.52
2023-03-10T02:18:05.844Z,7.46
2023-03-10T02:20:45.530Z,7.50
2023-03-10T02:23:16.351Z,7.45
2023-03-10T02:25:48.496Z,7.51
2023-03-10T02:28:15.244Z,7.48
2023-03-10T02:30:47.131Z,7.57
2023-03-10T02:33:29.283Z,7.62
2023-03-10T02:36:03.316Z,7.70
2023-03-10T02:38:29.932Z,7.83
2023-03-10T02:40:57.413Z,7.81
2023-03-10T02:43:32.845Z,7.90
2023-03-10T02:46:03.059Z,8.09
2023-03-10T02:48:32.439Z,8.20
2023-03-10T02:51:00.511Z,8.32
2023-03-10T02:53:28.568Z,8.48
2023-03-10T02:55:56.000Z,8.36
2023-03-10T02:58:24.151Z,8.40
2023-03-10T03:00:51.541Z,8.48
2023-03-10T03:03:20.764Z,8.52
2023-03-10T03:05:47.691Z,8.43
2023-03-10T03:08:14.742Z,8.31
2023-03-10T03:10:41.730Z,8.27
2023-03-10T03:13:08.758Z,8.25
2023-03-10T03:15:35.614Z,8.20
2023-03-10T03:18:03.262Z,8.23
2023-03-10T03:20:31.278Z,8.12
2023-03-10T03:22:58.449Z,8.25
2023-03-10T03:25:26.361Z,8.28
2023-03-10T03:27:53.130Z,8.26
2023-03-10T03:30:22.777Z,8.25
2023-03-10T03:32:50.037Z,8.26
2023-03-10T03:35:19.699Z,8.27
2023-03-10T03:37:46.321Z,8.25
2023-03-10T03:40:13.892Z,8.35
2023-03-10T03:42:45.463Z,8.33
2023-03-10T03:45:13.544Z,8.36
2023-03-10T03:47:40.177Z,8.41
2023-03-10T03:50:08.425Z,8.43
2023-03-10T03:52:34.957Z,8.44
2023-03-10T03:55:02.201Z,8.47
2023-03-10T03:57:29.037Z,8.52
2023-03-10T03:59:55.620Z,8.52
2023-03-10T04:02:22.241Z,8.52
2023-03-10T04:04:48.840Z,8.50
2023-03-10T04:07:16.585Z,8.50
2023-03-10T04:09:43.239Z,8.41
2023-03-10T04:12:10.435Z,8.49
2023-03-10T04:14:38.004Z,8.41
2023-03-10T04:17:05.231Z,8.45
2023-03-10T04:19:31.898Z,8.46
2023-03-10T04:21:58.424Z,8.45
2023-03-10T04:24:24.932Z,8.36
2023-03-10T04:26:51.422Z,8.32
2023-03-10T04:29:18.782Z,8.25
2023-03-10T04:31:55.833Z,8.25
2023-03-10T04:34:30.022Z,8.19
2023-03-10T04:36:56.491Z,8.30
2023-03-10T04:39:23.149Z,8.22
2023-03-10T04:41:49.774Z,8.19
2023-03-10T04:44:29.940Z,8.21
2023-03-10T04:46:58.017Z,8.19
2023-03-10T04:49:24.692Z,8.15
2023-03-10T04:51:51.217Z,8.16
2023-03-10T04:54:17.823Z,8.22
2023-03-10T04:56:44.309Z,8.28
2023-03-10T04:59:10.833Z,8.29
2023-03-10T05:01:37.392Z,8.45
2023-03-10T05:04:05.678Z,8.55
2023-03-10T05:06:32.318Z,8.69
2023-03-10T05:09:00.941Z,8.74
2023-03-10T05:11:27.689Z,8.95
2023-03-10T05:13:54.228Z,8.99
2023-03-10T05:16:22.388Z,9.11
2023-03-10T05:18:48.934Z,9.17
2023-03-10T05:21:15.657Z,9.27
2023-03-10T05:23:42.305Z,9.29
2023-03-10T05:26:10.834Z,9.38
2023-03-10T05:28:37.800Z,9.39
2023-03-10T05:31:13.134Z,9.45
2023-03-10T05:33:40.070Z,9.40
2023-03-10T05:36:11.832Z,9.37
2023-03-10T05:38:38.536Z,9.44
2023-03-10T05:41:09.480Z,9.46
2023-03-10T05:43:37.113Z,9.52
2023-03-10T05:46:04.469Z,9.54
2023-03-10T05:48:31.536Z,9.57
2023-03-10T05:51:03.623Z,9.59
2023-03-10T05:53:32.015Z,9.56
2023-03-10T05:55:58.820Z,9.58
2023-03-10T05:58:26.210Z,9.65
2023-03-10T06:00:53.337Z,9.64
2023-03-10T06:03:20.261Z,9.65
2023-03-10T06:05:47.059Z,9.67
2023-03-10T06:08:13.604Z,9.73
2023-03-10T06:10:40.494Z,9.72
2023-03-10T06:13:07.033Z,9.84
2023-03-10T06:15:33.671Z,9.85
2023-03-10T06:18:00.354Z,9.88
2023-03-10T06:20:27.000Z,9.93
2023-03-10T06:22:53.997Z,9.96
2023-03-10T06:25:21.024Z,9.97
2023-03-10T06:27:47.625Z,9.97
2023-03-10T06:30:15.396Z,9.96
2023-03-10T06:32:41.997Z,9.86
2023-03-10T06:35:12.463Z,9.88
2023-03-10T06:37:39.426Z,9.88
2023-03-10T06:40:08.163Z,9.86
2023-03-10T06:42:34.740Z,9.78
2023-03-10T06:45:01.370Z,9.81
2023-03-10T06:47:28.125Z,9.75
2023-03-10T06:49:55.043Z,9.84
2023-03-10T06:52:21.742Z,9.85
2023-03-10T06:54:48.168Z,9.90
2023-03-10T06:57:34.913Z,9.98
2023-03-10T07:00:22.280Z,10.01
2023-03-10T07:02:48.714Z,10.19
2023-03-10T07:05:15.420Z,10.21
2023-03-10T07:07:42.311Z,10.32
2023-03-10T07:10:09.516Z,10.27
2023-03-10T07:12:36.093Z,10.28
2023-03-10T07:15:03.126Z,10.30
2023-03-10T07:17:29.658Z,10.39
2023-03-10T07:19:56.142Z,10.37
2023-03-10T07:22:23.545Z,10.42
2023-03-10T07:24:54.156Z,10.45
2023-03-10T07:27:20.674Z,10.53
2023-03-10T07:29:47.309Z,10.47
2023-03-10T07:32:15.599Z,10.49
2023-03-10T07:34:42.236Z,10.58
2023-03-10T07:37:09.526Z,10.60
2023-03-10T07:39:36.151Z,10.69
2023-03-10T07:42:02.787Z,10.64
2023-03-10T07:44:29.594Z,10.62
2023-03-10T07:46:56.138Z,10.60
2023-03-10T07:49:23.221Z,10.59
2023-03-10T07:51:49.766Z,10.74
2023-03-10T07:54:16.367Z,10.80
2023-03-10T07:56:42.827Z,10.87
2023-03-10T07:59:09.349Z,10.81
2023-03-10T08:01:35.983Z,10.82
2023-03-10T08:04:02.657Z,10.94
2023-03-10T08:06:29.263Z,11.10
2023-03-10T08:08:55.757Z,11.08
2023-03-10T08:11:23.110Z,11.04
2023-03-10T08:13:49.615Z,11.12
2023-03-10T08:16:18.202Z,11.19
2023-03-10T08:18:45.040Z,11.32
2023-03-10T08:21:12.008Z,11.35
2023-03-10T08:23:39.364Z,11.48
2023-03-10T08:26:08.644Z,11.62
2023-03-10T08:28:37.552Z,11.69
2023-03-10T08:31:15.793Z,11.76
2023-03-10T08:33:42.970Z,12.03
2023-03-10T08:36:13.340Z,12.11
2023-03-10T08:38:41.051Z,12.15
2023-03-10T08:41:19.742Z,12.31
2023-03-10T08:43:48.981Z,12.45
2023-03-10T08:46:16.895Z,12.56
2023-03-10T08:48:43.495Z,12.81
2023-03-10T08:51:10.288Z,12.96
2023-03-10T08:53:37.946Z,13.62
2023-03-10T08:56:05.331Z,14.53
2023-03-10T08:58:32.013Z,14.93
2023-03-10T09:00:58.696Z,15.40
2023-03-10T09:03:25.863Z,15.73
2023-03-10T09:05:52.503Z,14.95
2023-03-10T09:08:19.060Z,14.69
2023-03-10T09:10:45.634Z,14.65
2023-03-10T09:13:14.386Z,15.65
2023-03-10T09:15:41.535Z,16.95
2023-03-10T09:18:12.986Z,16.99
2023-03-10T09:20:41.005Z,16.91
2023-03-10T09:23:09.254Z,16.82
2023-03-10T09:25:35.765Z,18.10
2023-03-10T09:28:02.436Z,17.46
2023-03-10T09:30:29.020Z,16.72
2023-03-10T09:32:56.300Z,17.13
2023-03-10T09:35:23.009Z,16.18
2023-03-10T09:37:49.709Z,15.61
2023-03-10T09:40:19.539Z,15.76
2023-03-10T09:43:04.117Z,16.32
2023-03-10T09:45:57.411Z,17.27
2023-03-10T09:48:59.135Z,17.91
2023-03-10T09:51:27.810Z,18.85
2023-03-10T09:54:19.230Z,19.43
2023-03-10T09:56:45.780Z,18.84
2023-03-10T09:59:22.711Z,19.79
2023-03-10T10:01:50.889Z,19.00
2023-03-10T10:04:21.791Z,19.70
2023-03-10T10:06:49.368Z,17.49
2023-03-10T10:09:42.059Z,17.71
2023-03-10T10:12:17.130Z,17.45
2023-03-10T10:14:56.806Z,18.00
2023-03-10T10:17:53.727Z,17.55
2023-03-10T10:20:27.744Z,17.55
2023-03-10T10:22:54.390Z,17.47
2023-03-10T10:25:23.718Z,18.12
2023-03-10T10:27:55.673Z,16.99
2023-03-10T10:30:38.286Z,16.14
2023-03-10T10:33:07.185Z,16.26
2023-03-10T10:35:39.347Z,15.72
2023-03-10T10:38:13.343Z,15.77
2023-03-10T10:40:50.044Z,15.59
2023-03-10T10:43:21.063Z,15.50
2023-03-10T10:46:04.107Z,15.44
2023-03-10T10:48:43.062Z,15.34
2023-03-10T10:51:31.196Z,15.00
2023-03-10T10:54:06.227Z,15.00
2023-03-10T10:56:33.147Z,15.57
2023-03-10T10:59:19.434Z,15.84
2023-03-10T11:01:54.624Z,15.36
2023-03-10T11:04:23.121Z,15.26
2023-03-10T11:06:50.376Z,15.17
2023-03-10T11:09:19.381Z,15.52
2023-03-10T11:12:04.031Z,15.93
2023-03-10T11:15:01.904Z,15.38
2023-03-10T11:17:38.474Z,14.99
2023-03-10T11:20:26.810Z,14.76
2023-03-10T11:23:19.336Z,14.62
2023-03-10T11:25:53.236Z,14.50
2023-03-10T11:28:19.678Z,14.47
2023-03-10T11:30:58.672Z,14.77
2023-03-10T11:33:54.585Z,14.60
2023-03-10T11:36:56.239Z,14.86
2023-03-10T11:39:39.163Z,14.75
2023-03-10T11:42:25.203Z,14.60
2023-03-10T11:45:18.813Z,14.73
2023-03-10T11:47:48.527Z,15.07
2023-03-10T11:50:30.473Z,15.56
2023-03-10T11:53:03.753Z,16.70
2023-03-10T11:55:30.545Z,17.24
2023-03-10T11:58:00.022Z,16.21
2023-03-10T12:00:41.046Z,15.82
2023-03-10T12:03:29.756Z,15.81
2023-03-10T12:05:59.243Z,16.43
2023-03-10T12:08:33.513Z,17.11
2023-03-10T12:11:01.863Z,17.62
2023-03-10T12:13:40.418Z,16.33
2023-03-10T12:16:07.218Z,15.92
2023-03-10T12:18:33.886Z,15.43
2023-03-10T12:21:17.436Z,15.28
2023-03-10T12:23:46.834Z,15.02
2023-03-10T12:26:14.081Z,15.06
2023-03-10T12:28:41.063Z,14.89
2023-03-10T12:31:10.671Z,14.58
2023-03-10T12:33:42.375Z,14.45
2023-03-10T12:36:33.783Z,14.21
2023-03-10T12:39:28.026Z,14.13
2023-03-10T12:41:56.437Z,14.11
2023-03-10T12:44:30.920Z,14.11
2023-03-10T12:47:18.962Z,14.11
2023-03-10T12:50:16.570Z,14.29
2023-03-10T12:52:47.777Z,14.42
2023-03-10T12:55:27.827Z,14.55
2023-03-10T12:58:05.982Z,14.37
2023-03-10T13:00:46.235Z,14.28
2023-03-10T13:03:21.935Z,14.25
2023-03-10T13:06:18.686Z,14.36
2023-03-10T13:08:48.952Z,14.81
2023-03-10T13:11:18.515Z,15.25
2023-03-10T13:13:47.891Z,15.32
2023-03-10T13:16:19.141Z,15.63
2023-03-10T13:18:51.152Z,16.51
2023-03-10T13:21:38.252Z,17.67
2023-03-10T13:24:24.348Z,18.39
2023-03-10T13:27:07.895Z,19.41
2023-03-10T13:29:35.008Z,18.92
2023-03-10T13:32:02.042Z,17.63
2023-03-10T13:34:30.615Z,16.74
2023-03-10T13:37:05.839Z,16.33
2023-03-10T13:39:32.586Z,16.20
2023-03-10T13:42:01.027Z,16.05
2023-03-10T13:44:37.692Z,16.06
2023-03-10T13:47:15.011Z,15.99
2023-03-10T13:49:46.777Z,16.00
2023-03-10T13:52:18.826Z,15.95
2023-03-10T13:54:45.570Z,16.14
2023-03-10T13:57:17.230Z,16.33
2023-03-10T13:59:43.822Z,16.29
2023-03-10T14:02:35.680Z,16.24
2023-03-10T14:05:02.316Z,16.30
2023-03-10T14:07:34.904Z,16.19
2023-03-10T14:10:04.412Z,15.85
2023-03-10T14:12:45.676Z,15.54
2023-03-10T14:15:31.510Z,15.41
2023-03-10T14:18:07.732Z,15.10
2023-03-10T14:20:44.516Z,14.78
2023-03-10T14:23:35.860Z,14.55
2023-03-10T14:26:08.132Z,14.29
2023-03-10T14:28:34.574Z,13.80
2023-03-10T14:31:02.644Z,12.93
2023-03-10T14:33:29.613Z,11.43
2023-03-10T14:35:56.753Z,9.76
2023-03-10T14:38:23.154Z,9.03
2023-03-10T14:40:52.330Z,8.73
2023-03-10T14:43:21.197Z,8.61
2023-03-10T14:45:48.956Z,8.60
2023-03-10T14:48:18.291Z,8.76
2023-03-10T14:50:46.372Z,8.81
2023-03-10T14:53:14.958Z,8.71
2023-03-10T14:55:43.783Z,8.79
2023-03-10T14:58:20.630Z,8.94
2023-03-10T15:00:47.773Z,9.00
2023-03-10T15:03:15.173Z,9.05
2023-03-10T15:05:48.612Z,9.12
2023-03-10T15:08:17.212Z,9.13
2023-03-10T15:10:48.249Z,9.10
2023-03-10T15:13:15.337Z,9.26
2023-03-10T15:15:44.170Z,9.64
2023-03-10T15:18:13.113Z,9.82
2023-03-10T15:20:39.773Z,9.99
2023-03-10T15:23:06.363Z,10.25
2023-03-10T15:25:32.916Z,10.27
2023-03-10T15:27:59.463Z,10.44
2023-03-10T15:30:28.768Z,10.29
2023-03-10T15:32:55.315Z,10.21
2023-03-10T15:35:22.772Z,10.12
2023-03-10T15:37:50.618Z,10.16
2023-03-10T15:40:19.908Z,10.32
2023-03-10T15:42:47.099Z,10.37
2023-03-10T15:45:14.856Z,10.38
2023-03-10T15:47:41.805Z,10.48
2023-03-10T15:50:09.513Z,10.56
2023-03-10T15:52:36.313Z,10.65
2023-03-10T15:55:02.871Z,10.67
2023-03-10T15:57:29.967Z,10.77
2023-03-10T15:59:56.488Z,10.80
2023-03-10T16:02:23.073Z,10.84
2023-03-10T16:04:49.577Z,10.84
2023-03-10T16:07:16.113Z,10.84
2023-03-10T16:09:42.600Z,10.72
2023-03-10T16:12:09.071Z,10.56
2023-03-10T16:14:35.689Z,10.53
2023-03-10T16:17:02.237Z,10.48
2023-03-10T16:19:28.760Z,10.45
2023-03-10T16:21:55.297Z,10.35
2023-03-10T16:24:22.379Z,10.33
2023-03-10T16:26:48.997Z,10.33
2023-03-10T16:29:15.798Z,10.25
2023-03-10T16:31:43.100Z,10.32
2023-03-10T16:34:09.737Z,10.39
2023-03-10T16:36:36.785Z,10.40
2023-03-10T16:39:08.087Z,10.31
2023-03-10T16:41:34.616Z,10.35
2023-03-10T16:44:11.405Z,10.32
2023-03-10T16:46:38.322Z,10.36
2023-03-10T16:49:05.225Z,10.38
2023-03-10T16:51:35.594Z,10.35
2023-03-10T16:54:03.421Z,10.29
2023-03-10T16:56:31.205Z,10.22
2023-03-10T16:58:58.382Z,10.20
2023-03-10T17:01:25.710Z,10.26
2023-03-10T17:03:53.389Z,10.14
2023-03-10T17:06:31.810Z,10.01
2023-03-10T17:08:58.863Z,10.08
2023-03-10T17:11:31.270Z,10.09
2023-03-10T17:14:00.124Z,9.91
2023-03-10T17:16:28.854Z,9.89
2023-03-10T17:18:56.658Z,9.92
2023-03-10T17:21:26.045Z,9.95
2023-03-10T17:23:52.486Z,9.89
2023-03-10T17:26:20.038Z,9.92
2023-03-10T17:28:48.766Z,9.90
2023-03-10T17:31:20.395Z,9.85
2023-03-10T17:33:47.310Z,9.81
2023-03-10T17:36:16.222Z,9.83
2023-03-10T17:38:43.346Z,9.84
2023-03-10T17:41:12.158Z,9.82
2023-03-10T17:43:39.401Z,9.77
2023-03-10T17:46:35.407Z,9.77
2023-03-10T17:49:02.375Z,9.72
2023-03-10T17:51:30.848Z,9.76
2023-03-10T17:53:59.197Z,9.75
2023-03-10T17:56:26.323Z,9.62
2023-03-10T17:58:56.986Z,9.50
2023-03-10T18:01:27.341Z,9.47
2023-03-10T18:03:58.335Z,9.39
2023-03-10T18:06:27.673Z,9.31
2023-03-10T18:08:56.439Z,9.28
2023-03-10T18:11:23.809Z,9.20
2023-03-10T18:13:50.402Z,9.11
2023-03-10T18:16:22.935Z,9.10
2023-03-10T18:18:49.658Z,9.08
2023-03-10T18:21:17.660Z,9.00
2023-03-10T18:23:44.606Z,8.99
2023-03-10T18:26:17.013Z,8.97
2023-03-10T18:28:43.612Z,8.97
2023-03-10T18:31:16.844Z,8.87
2023-03-10T18:33:43.653Z,8.82
2023-03-10T18:36:13.582Z,8.67
2023-03-10T18:38:40.964Z,8.67
2023-03-10T18:41:07.948Z,8.62
2023-03-10T18:43:34.561Z,8.63
2023-03-10T18:46:01.963Z,8.60
2023-03-10T18:48:28.787Z,8.61
2023-03-10T18:50:56.225Z,8.69
2023-03-10T18:53:23.170Z,8.60
2023-03-10T18:55:49.716Z,8.59
2023-03-10T18:58:16.673Z,8.57
2023-03-10T19:00:43.206Z,8.49
2023-03-10T19:03:13.122Z,8.66
2023-03-10T19:05:40.851Z,8.57
2023-03-10T19:08:07.766Z,8.52
2023-03-10T19:10:34.249Z,8.58
2023-03-10T19:13:01.882Z,8.47
2023-03-10T19:15:28.882Z,8.67
2023-03-10T19:17:55.562Z,8.54
2023-03-10T19:20:22.300Z,8.65
2023-03-10T19:22:52.213Z,8.64
2023-03-10T19:25:19.252Z,8.74
2023-03-10T19:27:46.143Z,8.85
2023-03-10T19:30:16.271Z,8.87
2023-03-10T19:32:44.134Z,8.81
2023-03-10T19:35:10.984Z,8.91
2023-03-10T19:37:38.553Z,8.95
2023-03-10T19:40:08.390Z,8.99
2023-03-10T19:42:35.751Z,8.94
2023-03-10T19:45:02.566Z,8.98
2023-03-10T19:47:31.980Z,9.02
2023-03-10T19:49:58.634Z,8.91
2023-03-10T19:52:25.458Z,8.87
2023-03-10T19:54:52.055Z,8.91
2023-03-10T19:57:18.599Z,8.99
2023-03-10T19:59:45.102Z,8.97
2023-03-10T20:02:13.581Z,8.98
2023-03-10T20:04:40.251Z,8.92
2023-03-10T20:07:06.851Z,8.88
2023-03-10T20:09:33.724Z,8.80
2023-03-10T20:12:00.366Z,8.70
2023-03-10T20:14:27.318Z,8.70
2023-03-10T20:16:54.010Z,8.61
2023-03-10T20:19:22.748Z,8.54
2023-03-10T20:21:50.462Z,8.48
2023-03-10T20:24:17.480Z,8.45
2023-03-10T20:26:44.095Z,8.52
2023-03-10T20:29:11.408Z,8.47
2023-03-10T20:31:38.042Z,8.43
2023-03-10T20:34:06.932Z,8.42
2023-03-10T20:36:34.223Z,8.38
2023-03-10T20:39:00.921Z,8.34
2023-03-10T20:41:27.722Z,8.28
2023-03-10T20:43:55.298Z,8.30
2023-03-10T20:46:22.925Z,8.25
2023-03-10T20:48:50.678Z,8.15
2023-03-10T20:51:19.176Z,8.03
2023-03-10T20:53:46.023Z,7.82
2023-03-10T20:56:14.240Z,7.69
2023-03-10T20:58:41.032Z,7.66
2023-03-10T21:01:15.121Z,7.61
2023-03-10T21:03:41.799Z,7.57
2023-03-10T21:06:08.307Z,7.59
2023-03-10T21:08:34.993Z,7.49
2023-03-10T21:11:01.841Z,7.55
2023-03-10T21:13:28.405Z,7.49
2023-03-10T21:15:55.088Z,7.42
2023-03-10T21:18:21.601Z,7.37
2023-03-10T21:20:48.148Z,7.34
2023-03-10T21:23:14.723Z,7.30
2023-03-10T21:25:42.331Z,7.25
2023-03-10T21:28:09.017Z,7.24
2023-03-10T21:30:35.578Z,7.24
2023-03-10T21:33:02.160Z,7.25
2023-03-10T21:35:31.835Z,7.22
2023-03-10T21:37:59.334Z,7.22
2023-03-10T21:40:26.604Z,7.21
2023-03-10T21:42:54.290Z,7.20
2023-03-10T21:45:22.476Z,7.13
2023-03-10T21:47:49.214Z,7.11
2023-03-10T21:50:17.694Z,7.11
2023-03-10T21:52:44.973Z,7.06
2023-03-10T21:55:18.690Z,7.05
2023-03-10T21:57:45.336Z,7.06
2023-03-10T22:00:13.042Z,7.03
2023-03-10T22:02:39.730Z,6.98
2023-03-10T22:05:06.657Z,6.98
2023-03-10T22:07:33.649Z,6.95
2023-03-10T22:10:00.419Z,6.94
2023-03-10T22:12:27.093Z,6.87
2023-03-10T22:14:56.366Z,6.85
2023-03-10T22:17:26.766Z,6.80
2023-03-10T22:19:54.841Z,6.74
2023-03-10T22:22:22.290Z,6.69
2023-03-10T22:24:49.547Z,6.60
2023-03-10T22:27:16.608Z,6.53
2023-03-10T22:29:43.177Z,6.54
2023-03-10T22:32:09.674Z,6.49
2023-03-10T22:34:36.252Z,6.45
2023-03-10T22:37:02.903Z,6.46
2023-03-10T22:39:29.409Z,6.42
2023-03-10T22:41:55.934Z,6.35
2023-03-10T22:44:22.987Z,6.30
2023-03-10T22:46:49.613Z,6.28
2023-03-10T22:49:16.228Z,6.23
2023-03-10T22:51:42.765Z,6.19
2023-03-10T22:54:09.161Z,6.16
2023-03-10T22:56:36.117Z,6.09
2023-03-10T22:59:04.406Z,6.10
2023-03-10T23:01:31.338Z,6.02
2023-03-10T23:03:57.981Z,5.95
2023-03-10T23:06:28.601Z,5.92
2023-03-10T23:08:56.365Z,5.84
2023-03-10T23:11:23.374Z,5.77
2023-03-10T23:13:50.088Z,5.73
2023-03-10T23:16:18.201Z,5.71
2023-03-10T23:18:44.703Z,5.68
2023-03-10T23:21:11.615Z,5.63
2023-03-10T23:23:39.257Z,5.59
2023-03-10T23:26:06.123Z,5.58
2023-03-10T23:28:33.259Z,5.59
2023-03-10T23:31:00.539Z,5.56
2023-03-10T23:33:28.216Z,5.53
2023-03-10T23:35:55.438Z,5.53
2023-03-10T23:38:27.005Z,5.50
2023-03-10T23:40:55.403Z,5.18
2023-03-10T23:43:22.321Z,4.60
2023-03-10T23:45:50.111Z,4.21
2023-03-10T23:48:18.165Z,3.96
2023-03-10T23:50:46.581Z,3.77
2023-03-10T23:53:15.149Z,3.54
2023-03-10T23:55:43.861Z,3.36
2023-03-10T23:58:11.019Z,3.21
